sensor_id;sensor_type;location;lat;lon;timestamp;P1;durP1;ratioP1;P2;durP2;ratioP2
46731;SDS011;32477;51.474;5.696;2023-11-19T00:00:42;11.38;;;6.43;;
46731;SDS011;32477;51.474;5.696;2023-11-19T00:03:08;12.98;;;6.28;;
46731;SDS011;32477;51.474;5.696;2023-11-19T00:05:33;8.68;;;5.05;;
46731;SDS011;32477;51.474;5.696;2023-11-19T00:07:59;11.68;;;5.95;;
46731;SDS011;32477;51.474;5.696;2023-11-19T00:10:28;8.90;;;5.38;;
46731;SDS011;32477;51.474;5.696;2023-11-19T00:12:53;15.68;;;5.72;;
46731;SDS011;32477;51.474;5.696;2023-11-19T00:15:20;10.88;;;5.43;;
46731;SDS011;32477;51.474;5.696;2023-11-19T00:17:46;10.60;;;5.28;;
46731;SDS011;32477;51.474;5.696;2023-11-19T00:20:17;10.55;;;4.60;;
46731;SDS011;32477;51.474;5.696;2023-11-19T00:22:43;10.57;;;4.95;;
46731;SDS011;32477;51.474;5.696;2023-11-19T00:25:13;19.67;;;4.82;;
46731;SDS011;32477;51.474;5.696;2023-11-19T00:27:39;6.15;;;3.35;;
46731;SDS011;32477;51.474;5.696;2023-11-19T00:30:05;11.38;;;3.78;;
46731;SDS011;32477;51.474;5.696;2023-11-19T00:32:33;8.07;;;3.42;;
46731;SDS011;32477;51.474;5.696;2023-11-19T00:34:59;6.38;;;3.47;;
46731;SDS011;32477;51.474;5.696;2023-11-19T00:37:25;7.57;;;3.80;;
46731;SDS011;32477;51.474;5.696;2023-11-19T00:39:51;10.07;;;3.42;;
46731;SDS011;32477;51.474;5.696;2023-11-19T00:42:17;7.72;;;3.13;;
46731;SDS011;32477;51.474;5.696;2023-11-19T00:44:43;7.38;;;2.72;;
46731;SDS011;32477;51.474;5.696;2023-11-19T00:47:09;5.05;;;2.80;;
46731;SDS011;32477;51.474;5.696;2023-11-19T00:49:34;4.22;;;2.58;;
46731;SDS011;32477;51.474;5.696;2023-11-19T00:52:00;5.68;;;2.88;;
46731;SDS011;32477;51.474;5.696;2023-11-19T00:54:27;10.35;;;3.53;;
46731;SDS011;32477;51.474;5.696;2023-11-19T00:56:53;5.70;;;2.28;;
46731;SDS011;32477;51.474;5.696;2023-11-19T00:59:18;6.07;;;2.40;;
46731;SDS011;32477;51.474;5.696;2023-11-19T01:01:44;9.88;;;2.60;;
46731;SDS011;32477;51.474;5.696;2023-11-19T01:04:10;13.38;;;2.42;;
46731;SDS011;32477;51.474;5.696;2023-11-19T01:06:36;11.00;;;3.03;;
46731;SDS011;32477;51.474;5.696;2023-11-19T01:09:02;7.20;;;2.83;;
46731;SDS011;32477;51.474;5.696;2023-11-19T01:11:28;8.55;;;2.22;;
46731;SDS011;32477;51.474;5.696;2023-11-19T01:13:53;7.18;;;2.30;;
46731;SDS011;32477;51.474;5.696;2023-11-19T01:16:19;12.70;;;2.70;;
46731;SDS011;32477;51.474;5.696;2023-11-19T01:18:49;12.10;;;2.53;;
46731;SDS011;32477;51.474;5.696;2023-11-19T01:21:15;10.23;;;2.60;;
46731;SDS011;32477;51.474;5.696;2023-11-19T01:23:44;9.23;;;2.95;;
46731;SDS011;32477;51.474;5.696;2023-11-19T01:26:10;19.33;;;3.00;;
46731;SDS011;32477;51.474;5.696;2023-11-19T01:28:37;16.50;;;3.03;;
46731;SDS011;32477;51.474;5.696;2023-11-19T01:31:10;13.30;;;3.03;;
46731;SDS011;32477;51.474;5.696;2023-11-19T01:33:37;14.25;;;2.90;;
46731;SDS011;32477;51.474;5.696;2023-11-19T01:36:04;11.68;;;3.88;;
46731;SDS011;32477;51.474;5.696;2023-11-19T01:38:30;17.30;;;3.30;;
46731;SDS011;32477;51.474;5.696;2023-11-19T01:40:58;16.20;;;3.53;;
46731;SDS011;32477;51.474;5.696;2023-11-19T01:43:33;7.68;;;2.53;;
46731;SDS011;32477;51.474;5.696;2023-11-19T01:46:04;11.27;;;2.88;;
46731;SDS011;32477;51.474;5.696;2023-11-19T01:48:31;14.63;;;2.58;;
46731;SDS011;32477;51.474;5.696;2023-11-19T01:50:59;18.85;;;2.80;;
46731;SDS011;32477;51.474;5.696;2023-11-19T01:53:27;18.23;;;4.60;;
46731;SDS011;32477;51.474;5.696;2023-11-19T01:55:52;16.52;;;2.83;;
46731;SDS011;32477;51.474;5.696;2023-11-19T01:58:18;16.75;;;3.03;;
46731;SDS011;32477;51.474;5.696;2023-11-19T02:00:44;11.55;;;2.88;;
46731;SDS011;32477;51.474;5.696;2023-11-19T02:03:11;14.57;;;2.83;;
46731;SDS011;32477;51.474;5.696;2023-11-19T02:05:37;8.32;;;3.03;;
46731;SDS011;32477;51.474;5.696;2023-11-19T02:08:04;15.52;;;3.70;;
46731;SDS011;32477;51.474;5.696;2023-11-19T02:10:30;13.10;;;2.92;;
46731;SDS011;32477;51.474;5.696;2023-11-19T02:12:57;10.82;;;3.03;;
46731;SDS011;32477;51.474;5.696;2023-11-19T02:15:23;10.65;;;2.70;;
46731;SDS011;32477;51.474;5.696;2023-11-19T02:17:50;12.30;;;2.72;;
46731;SDS011;32477;51.474;5.696;2023-11-19T02:20:16;12.27;;;2.80;;
46731;SDS011;32477;51.474;5.696;2023-11-19T02:22:44;12.80;;;2.85;;
46731;SDS011;32477;51.474;5.696;2023-11-19T02:25:15;18.08;;;2.92;;
46731;SDS011;32477;51.474;5.696;2023-11-19T02:27:54;12.63;;;2.80;;
46731;SDS011;32477;51.474;5.696;2023-11-19T02:30:24;7.75;;;3.00;;
46731;SDS011;32477;51.474;5.696;2023-11-19T02:32:54;15.68;;;3.67;;
46731;SDS011;32477;51.474;5.696;2023-11-19T02:35:26;13.82;;;3.13;;
46731;SDS011;32477;51.474;5.696;2023-11-19T02:37:56;13.73;;;2.78;;
46731;SDS011;32477;51.474;5.696;2023-11-19T02:40:22;9.15;;;2.80;;
46731;SDS011;32477;51.474;5.696;2023-11-19T02:42:51;12.25;;;3.20;;
46731;SDS011;32477;51.474;5.696;2023-11-19T02:45:20;16.65;;;3.33;;
46731;SDS011;32477;51.474;5.696;2023-11-19T02:47:49;19.42;;;3.38;;
46731;SDS011;32477;51.474;5.696;2023-11-19T02:50:15;14.68;;;3.70;;
46731;SDS011;32477;51.474;5.696;2023-11-19T02:52:50;17.23;;;3.90;;
46731;SDS011;32477;51.474;5.696;2023-11-19T02:55:16;16.00;;;3.45;;
46731;SDS011;32477;51.474;5.696;2023-11-19T02:57:43;26.73;;;3.80;;
46731;SDS011;32477;51.474;5.696;2023-11-19T03:00:14;17.85;;;3.22;;
46731;SDS011;32477;51.474;5.696;2023-11-19T03:02:41;20.08;;;3.35;;
46731;SDS011;32477;51.474;5.696;2023-11-19T03:05:12;17.10;;;4.38;;
46731;SDS011;32477;51.474;5.696;2023-11-19T03:07:40;26.90;;;4.70;;
46731;SDS011;32477;51.474;5.696;2023-11-19T03:10:08;28.38;;;3.67;;
46731;SDS011;32477;51.474;5.696;2023-11-19T03:12:34;28.25;;;4.50;;
46731;SDS011;32477;51.474;5.696;2023-11-19T03:15:00;35.67;;;4.80;;
46731;SDS011;32477;51.474;5.696;2023-11-19T03:17:26;19.70;;;3.78;;
46731;SDS011;32477;51.474;5.696;2023-11-19T03:19:52;32.72;;;4.65;;
46731;SDS011;32477;51.474;5.696;2023-11-19T03:22:18;22.90;;;3.72;;
46731;SDS011;32477;51.474;5.696;2023-11-19T03:24:44;24.92;;;4.28;;
46731;SDS011;32477;51.474;5.696;2023-11-19T03:27:10;29.05;;;4.03;;
46731;SDS011;32477;51.474;5.696;2023-11-19T03:29:36;24.80;;;4.35;;
46731;SDS011;32477;51.474;5.696;2023-11-19T03:32:04;33.97;;;6.15;;
46731;SDS011;32477;51.474;5.696;2023-11-19T03:34:30;30.63;;;4.90;;
46731;SDS011;32477;51.474;5.696;2023-11-19T03:36:56;27.88;;;4.25;;
46731;SDS011;32477;51.474;5.696;2023-11-19T03:39:22;25.50;;;3.42;;
46731;SDS011;32477;51.474;5.696;2023-11-19T03:41:50;31.73;;;4.60;;
46731;SDS011;32477;51.474;5.696;2023-11-19T03:44:16;42.80;;;5.22;;
46731;SDS011;32477;51.474;5.696;2023-11-19T03:46:43;31.08;;;4.32;;
46731;SDS011;32477;51.474;5.696;2023-11-19T03:49:08;34.63;;;4.93;;
46731;SDS011;32477;51.474;5.696;2023-11-19T03:51:34;38.60;;;4.00;;
46731;SDS011;32477;51.474;5.696;2023-11-19T03:54:00;35.88;;;4.63;;
46731;SDS011;32477;51.474;5.696;2023-11-19T03:56:26;29.63;;;3.72;;
46731;SDS011;32477;51.474;5.696;2023-11-19T03:58:56;31.88;;;6.03;;
46731;SDS011;32477;51.474;5.696;2023-11-19T04:01:21;35.88;;;5.35;;
46731;SDS011;32477;51.474;5.696;2023-11-19T04:03:47;24.65;;;4.35;;
46731;SDS011;32477;51.474;5.696;2023-11-19T04:06:13;24.58;;;4.32;;
46731;SDS011;32477;51.474;5.696;2023-11-19T04:08:39;37.95;;;5.03;;
46731;SDS011;32477;51.474;5.696;2023-11-19T04:11:05;32.08;;;6.18;;
46731;SDS011;32477;51.474;5.696;2023-11-19T04:13:31;47.22;;;5.68;;
46731;SDS011;32477;51.474;5.696;2023-11-19T04:15:56;36.05;;;6.15;;
46731;SDS011;32477;51.474;5.696;2023-11-19T04:18:22;30.70;;;4.40;;
46731;SDS011;32477;51.474;5.696;2023-11-19T04:20:48;26.48;;;4.93;;
46731;SDS011;32477;51.474;5.696;2023-11-19T04:23:15;34.72;;;4.60;;
46731;SDS011;32477;51.474;5.696;2023-11-19T04:25:41;37.13;;;5.22;;
46731;SDS011;32477;51.474;5.696;2023-11-19T04:28:07;31.20;;;5.47;;
46731;SDS011;32477;51.474;5.696;2023-11-19T04:30:33;45.33;;;6.18;;
46731;SDS011;32477;51.474;5.696;2023-11-19T04:32:59;33.25;;;4.65;;
46731;SDS011;32477;51.474;5.696;2023-11-19T04:35:27;35.95;;;4.53;;
46731;SDS011;32477;51.474;5.696;2023-11-19T04:37:53;39.70;;;4.40;;
46731;SDS011;32477;51.474;5.696;2023-11-19T04:40:22;27.25;;;4.00;;
46731;SDS011;32477;51.474;5.696;2023-11-19T04:42:48;32.83;;;4.50;;
46731;SDS011;32477;51.474;5.696;2023-11-19T04:45:14;27.30;;;4.57;;
46731;SDS011;32477;51.474;5.696;2023-11-19T04:47:41;33.25;;;4.68;;
46731;SDS011;32477;51.474;5.696;2023-11-19T04:50:07;39.42;;;5.28;;
46731;SDS011;32477;51.474;5.696;2023-11-19T04:52:39;47.63;;;6.35;;
46731;SDS011;32477;51.474;5.696;2023-11-19T04:55:05;37.13;;;4.63;;
46731;SDS011;32477;51.474;5.696;2023-11-19T04:57:31;30.65;;;5.50;;
46731;SDS011;32477;51.474;5.696;2023-11-19T04:59:57;28.88;;;3.83;;
46731;SDS011;32477;51.474;5.696;2023-11-19T05:02:23;41.67;;;5.18;;
46731;SDS011;32477;51.474;5.696;2023-11-19T05:04:49;36.85;;;4.97;;
46731;SDS011;32477;51.474;5.696;2023-11-19T05:07:15;35.80;;;5.93;;
46731;SDS011;32477;51.474;5.696;2023-11-19T05:09:41;38.17;;;5.10;;
46731;SDS011;32477;51.474;5.696;2023-11-19T05:12:08;24.05;;;3.88;;
46731;SDS011;32477;51.474;5.696;2023-11-19T05:14:37;28.17;;;4.22;;
46731;SDS011;32477;51.474;5.696;2023-11-19T05:17:03;31.17;;;4.97;;
46731;SDS011;32477;51.474;5.696;2023-11-19T05:19:29;33.97;;;4.80;;
46731;SDS011;32477;51.474;5.696;2023-11-19T05:21:55;42.55;;;5.20;;
46731;SDS011;32477;51.474;5.696;2023-11-19T05:24:20;34.83;;;5.55;;
46731;SDS011;32477;51.474;5.696;2023-11-19T05:26:46;35.78;;;5.30;;
46731;SDS011;32477;51.474;5.696;2023-11-19T05:29:12;39.90;;;6.10;;
46731;SDS011;32477;51.474;5.696;2023-11-19T05:31:38;40.33;;;5.10;;
46731;SDS011;32477;51.474;5.696;2023-11-19T05:34:03;40.20;;;4.50;;
46731;SDS011;32477;51.474;5.696;2023-11-19T05:36:29;28.60;;;5.05;;
46731;SDS011;32477;51.474;5.696;2023-11-19T05:38:55;45.92;;;5.72;;
46731;SDS011;32477;51.474;5.696;2023-11-19T05:41:20;39.15;;;4.82;;
46731;SDS011;32477;51.474;5.696;2023-11-19T05:43:46;29.75;;;5.10;;
46731;SDS011;32477;51.474;5.696;2023-11-19T05:46:12;46.55;;;6.18;;
46731;SDS011;32477;51.474;5.696;2023-11-19T05:48:38;42.47;;;6.10;;
46731;SDS011;32477;51.474;5.696;2023-11-19T05:51:04;29.73;;;5.97;;
46731;SDS011;32477;51.474;5.696;2023-11-19T05:53:30;41.10;;;5.57;;
46731;SDS011;32477;51.474;5.696;2023-11-19T05:55:57;35.83;;;5.47;;
46731;SDS011;32477;51.474;5.696;2023-11-19T05:58:23;35.33;;;5.30;;
46731;SDS011;32477;51.474;5.696;2023-11-19T06:00:57;26.45;;;4.32;;
46731;SDS011;32477;51.474;5.696;2023-11-19T06:03:26;30.30;;;5.90;;
46731;SDS011;32477;51.474;5.696;2023-11-19T06:05:51;26.58;;;4.15;;
46731;SDS011;32477;51.474;5.696;2023-11-19T06:08:19;30.90;;;4.45;;
46731;SDS011;32477;51.474;5.696;2023-11-19T06:10:46;45.78;;;6.15;;
46731;SDS011;32477;51.474;5.696;2023-11-19T06:13:14;37.00;;;6.32;;
46731;SDS011;32477;51.474;5.696;2023-11-19T06:15:44;31.27;;;4.90;;
46731;SDS011;32477;51.474;5.696;2023-11-19T06:18:10;42.47;;;4.65;;
46731;SDS011;32477;51.474;5.696;2023-11-19T06:20:40;38.88;;;4.60;;
46731;SDS011;32477;51.474;5.696;2023-11-19T06:23:06;41.20;;;5.40;;
46731;SDS011;32477;51.474;5.696;2023-11-19T06:25:31;36.67;;;5.82;;
46731;SDS011;32477;51.474;5.696;2023-11-19T06:27:58;27.77;;;3.75;;
46731;SDS011;32477;51.474;5.696;2023-11-19T06:30:23;41.92;;;6.88;;
46731;SDS011;32477;51.474;5.696;2023-11-19T06:32:49;35.10;;;4.90;;
46731;SDS011;32477;51.474;5.696;2023-11-19T06:35:16;38.90;;;5.70;;
46731;SDS011;32477;51.474;5.696;2023-11-19T06:37:42;34.38;;;4.72;;
46731;SDS011;32477;51.474;5.696;2023-11-19T06:40:08;36.15;;;4.97;;
46731;SDS011;32477;51.474;5.696;2023-11-19T06:42:35;34.20;;;5.40;;
46731;SDS011;32477;51.474;5.696;2023-11-19T06:45:01;38.90;;;5.50;;
46731;SDS011;32477;51.474;5.696;2023-11-19T06:47:27;27.40;;;4.20;;
46731;SDS011;32477;51.474;5.696;2023-11-19T06:49:53;29.88;;;3.83;;
46731;SDS011;32477;51.474;5.696;2023-11-19T06:52:19;43.08;;;5.88;;
46731;SDS011;32477;51.474;5.696;2023-11-19T06:54:45;39.33;;;4.78;;
46731;SDS011;32477;51.474;5.696;2023-11-19T06:57:11;43.00;;;5.30;;
46731;SDS011;32477;51.474;5.696;2023-11-19T06:59:37;49.97;;;5.03;;
46731;SDS011;32477;51.474;5.696;2023-11-19T07:02:03;41.72;;;4.60;;
46731;SDS011;32477;51.474;5.696;2023-11-19T07:04:30;38.13;;;4.80;;
46731;SDS011;32477;51.474;5.696;2023-11-19T07:06:56;28.63;;;4.45;;
46731;SDS011;32477;51.474;5.696;2023-11-19T07:09:22;33.85;;;5.70;;
46731;SDS011;32477;51.474;5.696;2023-11-19T07:11:48;40.42;;;5.20;;
46731;SDS011;32477;51.474;5.696;2023-11-19T07:14:16;36.13;;;5.70;;
46731;SDS011;32477;51.474;5.696;2023-11-19T07:16:42;40.33;;;4.13;;
46731;SDS011;32477;51.474;5.696;2023-11-19T07:19:08;38.05;;;4.25;;
46731;SDS011;32477;51.474;5.696;2023-11-19T07:21:34;38.10;;;4.47;;
46731;SDS011;32477;51.474;5.696;2023-11-19T07:24:00;35.85;;;5.00;;
46731;SDS011;32477;51.474;5.696;2023-11-19T07:26:27;39.08;;;4.65;;
46731;SDS011;32477;51.474;5.696;2023-11-19T07:28:53;25.77;;;4.53;;
46731;SDS011;32477;51.474;5.696;2023-11-19T07:31:20;45.00;;;5.35;;
46731;SDS011;32477;51.474;5.696;2023-11-19T07:33:46;49.10;;;5.88;;
46731;SDS011;32477;51.474;5.696;2023-11-19T07:36:13;30.35;;;5.00;;
46731;SDS011;32477;51.474;5.696;2023-11-19T07:38:39;32.88;;;5.95;;
46731;SDS011;32477;51.474;5.696;2023-11-19T07:41:05;39.30;;;4.95;;
46731;SDS011;32477;51.474;5.696;2023-11-19T07:43:31;29.58;;;5.35;;
46731;SDS011;32477;51.474;5.696;2023-11-19T07:45:56;34.60;;;4.25;;
46731;SDS011;32477;51.474;5.696;2023-11-19T07:48:24;37.35;;;6.03;;
46731;SDS011;32477;51.474;5.696;2023-11-19T07:50:51;30.95;;;4.63;;
46731;SDS011;32477;51.474;5.696;2023-11-19T07:53:18;44.15;;;5.28;;
46731;SDS011;32477;51.474;5.696;2023-11-19T07:55:44;46.40;;;5.32;;
46731;SDS011;32477;51.474;5.696;2023-11-19T07:58:10;36.60;;;5.03;;
46731;SDS011;32477;51.474;5.696;2023-11-19T08:00:37;40.13;;;6.45;;
46731;SDS011;32477;51.474;5.696;2023-11-19T08:03:03;25.85;;;4.68;;
46731;SDS011;32477;51.474;5.696;2023-11-19T08:05:31;31.77;;;4.28;;
46731;SDS011;32477;51.474;5.696;2023-11-19T08:07:56;43.35;;;4.85;;
46731;SDS011;32477;51.474;5.696;2023-11-19T08:10:23;37.08;;;5.30;;
46731;SDS011;32477;51.474;5.696;2023-11-19T08:12:49;36.60;;;5.65;;
46731;SDS011;32477;51.474;5.696;2023-11-19T08:15:14;33.88;;;4.43;;
46731;SDS011;32477;51.474;5.696;2023-11-19T08:17:41;34.58;;;5.40;;
46731;SDS011;32477;51.474;5.696;2023-11-19T08:20:08;32.65;;;4.45;;
46731;SDS011;32477;51.474;5.696;2023-11-19T08:22:36;31.98;;;4.35;;
46731;SDS011;32477;51.474;5.696;2023-11-19T08:25:03;51.05;;;7.10;;
46731;SDS011;32477;51.474;5.696;2023-11-19T08:27:30;30.40;;;4.55;;
46731;SDS011;32477;51.474;5.696;2023-11-19T08:29:55;35.72;;;6.10;;
46731;SDS011;32477;51.474;5.696;2023-11-19T08:32:22;32.97;;;4.53;;
46731;SDS011;32477;51.474;5.696;2023-11-19T08:34:51;38.25;;;4.40;;
46731;SDS011;32477;51.474;5.696;2023-11-19T08:37:17;24.92;;;4.35;;
46731;SDS011;32477;51.474;5.696;2023-11-19T08:39:46;31.42;;;4.57;;
46731;SDS011;32477;51.474;5.696;2023-11-19T08:42:12;45.28;;;4.60;;
46731;SDS011;32477;51.474;5.696;2023-11-19T08:44:38;37.38;;;4.63;;
46731;SDS011;32477;51.474;5.696;2023-11-19T08:47:04;46.28;;;4.97;;
46731;SDS011;32477;51.474;5.696;2023-11-19T08:49:29;33.22;;;5.90;;
46731;SDS011;32477;51.474;5.696;2023-11-19T08:51:55;47.45;;;5.60;;
46731;SDS011;32477;51.474;5.696;2023-11-19T08:54:21;29.70;;;4.72;;
46731;SDS011;32477;51.474;5.696;2023-11-19T08:56:47;36.78;;;4.72;;
46731;SDS011;32477;51.474;5.696;2023-11-19T08:59:13;30.00;;;4.97;;
46731;SDS011;32477;51.474;5.696;2023-11-19T09:01:40;33.97;;;5.22;;
46731;SDS011;32477;51.474;5.696;2023-11-19T09:04:06;46.08;;;5.05;;
46731;SDS011;32477;51.474;5.696;2023-11-19T09:06:32;31.45;;;3.75;;
46731;SDS011;32477;51.474;5.696;2023-11-19T09:08:57;34.35;;;4.40;;
46731;SDS011;32477;51.474;5.696;2023-11-19T09:11:27;29.02;;;4.30;;
46731;SDS011;32477;51.474;5.696;2023-11-19T09:13:53;22.60;;;3.78;;
46731;SDS011;32477;51.474;5.696;2023-11-19T09:16:19;33.47;;;5.18;;
46731;SDS011;32477;51.474;5.696;2023-11-19T09:18:44;26.58;;;3.85;;
46731;SDS011;32477;51.474;5.696;2023-11-19T09:21:13;32.15;;;4.38;;
46731;SDS011;32477;51.474;5.696;2023-11-19T09:23:39;32.97;;;5.47;;
46731;SDS011;32477;51.474;5.696;2023-11-19T09:26:05;31.17;;;4.65;;
46731;SDS011;32477;51.474;5.696;2023-11-19T09:28:33;38.97;;;5.57;;
46731;SDS011;32477;51.474;5.696;2023-11-19T09:30:58;32.00;;;4.25;;
46731;SDS011;32477;51.474;5.696;2023-11-19T09:33:24;39.65;;;4.60;;
46731;SDS011;32477;51.474;5.696;2023-11-19T09:35:51;43.72;;;4.72;;
46731;SDS011;32477;51.474;5.696;2023-11-19T09:38:17;25.33;;;4.45;;
46731;SDS011;32477;51.474;5.696;2023-11-19T09:40:42;26.25;;;4.32;;
46731;SDS011;32477;51.474;5.696;2023-11-19T09:43:08;26.95;;;4.63;;
46731;SDS011;32477;51.474;5.696;2023-11-19T09:46:35;35.30;;;4.38;;
46731;SDS011;32477;51.474;5.696;2023-11-19T09:48:36;30.95;;;3.97;;
46731;SDS011;32477;51.474;5.696;2023-11-19T09:51:03;25.58;;;3.53;;
46731;SDS011;32477;51.474;5.696;2023-11-19T09:53:30;43.95;;;5.47;;
46731;SDS011;32477;51.474;5.696;2023-11-19T09:55:57;39.08;;;4.35;;
46731;SDS011;32477;51.474;5.696;2023-11-19T09:58:28;27.15;;;4.68;;
46731;SDS011;32477;51.474;5.696;2023-11-19T10:00:55;32.10;;;4.57;;
46731;SDS011;32477;51.474;5.696;2023-11-19T10:03:23;35.25;;;5.68;;
46731;SDS011;32477;51.474;5.696;2023-11-19T10:05:51;34.00;;;4.38;;
46731;SDS011;32477;51.474;5.696;2023-11-19T10:08:18;34.60;;;5.05;;
46731;SDS011;32477;51.474;5.696;2023-11-19T10:10:44;36.83;;;4.43;;
46731;SDS011;32477;51.474;5.696;2023-11-19T10:13:10;26.92;;;4.15;;
46731;SDS011;32477;51.474;5.696;2023-11-19T10:15:36;30.98;;;4.40;;
46731;SDS011;32477;51.474;5.696;2023-11-19T10:18:02;24.08;;;3.38;;
46731;SDS011;32477;51.474;5.696;2023-11-19T10:20:37;31.92;;;5.35;;
46731;SDS011;32477;51.474;5.696;2023-11-19T10:23:06;27.55;;;5.07;;
46731;SDS011;32477;51.474;5.696;2023-11-19T10:25:32;27.20;;;4.32;;
46731;SDS011;32477;51.474;5.696;2023-11-19T10:27:59;33.97;;;5.13;;
46731;SDS011;32477;51.474;5.696;2023-11-19T10:30:28;34.13;;;3.50;;
46731;SDS011;32477;51.474;5.696;2023-11-19T10:35:50;22.88;;;3.78;;
46731;SDS011;32477;51.474;5.696;2023-11-19T10:38:21;20.40;;;3.50;;
46731;SDS011;32477;51.474;5.696;2023-11-19T10:40:48;24.77;;;4.28;;
46731;SDS011;32477;51.474;5.696;2023-11-19T10:43:15;24.60;;;4.43;;
46731;SDS011;32477;51.474;5.696;2023-11-19T10:45:42;30.20;;;4.32;;
46731;SDS011;32477;51.474;5.696;2023-11-19T10:48:08;20.17;;;4.03;;
46731;SDS011;32477;51.474;5.696;2023-11-19T10:50:35;35.55;;;4.20;;
46731;SDS011;32477;51.474;5.696;2023-11-19T10:53:02;27.63;;;4.45;;
46731;SDS011;32477;51.474;5.696;2023-11-19T10:55:35;27.50;;;4.07;;
46731;SDS011;32477;51.474;5.696;2023-11-19T10:58:10;30.35;;;5.05;;
46731;SDS011;32477;51.474;5.696;2023-11-19T11:00:46;25.15;;;3.85;;
46731;SDS011;32477;51.474;5.696;2023-11-19T11:05:43;23.30;;;3.53;;
46731;SDS011;32477;51.474;5.696;2023-11-19T11:08:13;19.33;;;3.47;;
46731;SDS011;32477;51.474;5.696;2023-11-19T11:10:48;25.10;;;3.97;;
46731;SDS011;32477;51.474;5.696;2023-11-19T11:13:18;27.00;;;3.70;;
46731;SDS011;32477;51.474;5.696;2023-11-19T11:15:45;24.77;;;4.28;;
46731;SDS011;32477;51.474;5.696;2023-11-19T11:18:12;26.02;;;3.97;;
46731;SDS011;32477;51.474;5.696;2023-11-19T11:20:38;30.08;;;4.05;;
46731;SDS011;32477;51.474;5.696;2023-11-19T11:26:06;28.77;;;3.60;;
46731;SDS011;32477;51.474;5.696;2023-11-19T11:28:54;22.63;;;4.07;;
46731;SDS011;32477;51.474;5.696;2023-11-19T11:34:32;27.65;;;3.90;;
46731;SDS011;32477;51.474;5.696;2023-11-19T11:37:20;30.77;;;3.88;;
46731;SDS011;32477;51.474;5.696;2023-11-19T11:39:51;21.90;;;3.78;;
46731;SDS011;32477;51.474;5.696;2023-11-19T11:45:15;21.83;;;3.90;;
46731;SDS011;32477;51.474;5.696;2023-11-19T11:55:26;30.98;;;4.35;;
46731;SDS011;32477;51.474;5.696;2023-11-19T11:57:52;25.58;;;3.85;;
46731;SDS011;32477;51.474;5.696;2023-11-19T12:00:28;22.42;;;3.30;;
46731;SDS011;32477;51.474;5.696;2023-11-19T12:02:56;22.30;;;3.75;;
46731;SDS011;32477;51.474;5.696;2023-11-19T12:05:25;20.15;;;2.65;;
46731;SDS011;32477;51.474;5.696;2023-11-19T12:07:55;23.95;;;3.80;;
46731;SDS011;32477;51.474;5.696;2023-11-19T12:10:23;16.35;;;3.30;;
46731;SDS011;32477;51.474;5.696;2023-11-19T12:12:53;22.30;;;3.40;;
46731;SDS011;32477;51.474;5.696;2023-11-19T12:15:18;23.00;;;3.60;;
46731;SDS011;32477;51.474;5.696;2023-11-19T12:17:50;17.98;;;3.42;;
46731;SDS011;32477;51.474;5.696;2023-11-19T12:20:16;20.42;;;3.28;;
46731;SDS011;32477;51.474;5.696;2023-11-19T12:22:46;14.27;;;2.95;;
46731;SDS011;32477;51.474;5.696;2023-11-19T12:25:14;30.05;;;4.45;;
46731;SDS011;32477;51.474;5.696;2023-11-19T12:27:50;29.77;;;3.92;;
46731;SDS011;32477;51.474;5.696;2023-11-19T12:30:17;28.38;;;3.50;;
46731;SDS011;32477;51.474;5.696;2023-11-19T12:32:50;17.42;;;3.13;;
46731;SDS011;32477;51.474;5.696;2023-11-19T12:35:16;27.05;;;4.70;;
46731;SDS011;32477;51.474;5.696;2023-11-19T12:37:51;18.50;;;3.38;;
46731;SDS011;32477;51.474;5.696;2023-11-19T12:40:18;19.35;;;3.38;;
46731;SDS011;32477;51.474;5.696;2023-11-19T12:42:49;21.05;;;3.53;;
46731;SDS011;32477;51.474;5.696;2023-11-19T12:45:18;23.90;;;4.60;;
46731;SDS011;32477;51.474;5.696;2023-11-19T12:47:46;24.02;;;4.55;;
46731;SDS011;32477;51.474;5.696;2023-11-19T12:50:12;26.60;;;4.57;;
46731;SDS011;32477;51.474;5.696;2023-11-19T12:52:38;28.33;;;3.63;;
46731;SDS011;32477;51.474;5.696;2023-11-19T12:55:04;22.48;;;3.88;;
46731;SDS011;32477;51.474;5.696;2023-11-19T12:57:48;21.92;;;3.83;;
46731;SDS011;32477;51.474;5.696;2023-11-19T13:00:24;27.10;;;3.38;;
46731;SDS011;32477;51.474;5.696;2023-11-19T13:02:51;30.75;;;3.83;;
46731;SDS011;32477;51.474;5.696;2023-11-19T13:05:25;22.88;;;3.10;;
46731;SDS011;32477;51.474;5.696;2023-11-19T13:07:58;17.55;;;3.10;;
46731;SDS011;32477;51.474;5.696;2023-11-19T13:10:31;26.38;;;3.90;;
46731;SDS011;32477;51.474;5.696;2023-11-19T13:13:20;25.60;;;3.78;;
46731;SDS011;32477;51.474;5.696;2023-11-19T13:15:46;19.67;;;3.70;;
46731;SDS011;32477;51.474;5.696;2023-11-19T13:18:12;19.60;;;3.58;;
46731;SDS011;32477;51.474;5.696;2023-11-19T13:20:39;23.75;;;3.95;;
46731;SDS011;32477;51.474;5.696;2023-11-19T13:23:05;20.00;;;3.35;;
46731;SDS011;32477;51.474;5.696;2023-11-19T13:25:35;22.67;;;3.72;;
46731;SDS011;32477;51.474;5.696;2023-11-19T13:28:01;28.55;;;4.15;;
46731;SDS011;32477;51.474;5.696;2023-11-19T13:30:27;36.63;;;4.22;;
46731;SDS011;32477;51.474;5.696;2023-11-19T13:32:54;31.58;;;4.05;;
46731;SDS011;32477;51.474;5.696;2023-11-19T13:35:20;21.40;;;4.10;;
46731;SDS011;32477;51.474;5.696;2023-11-19T13:37:47;23.67;;;4.43;;
46731;SDS011;32477;51.474;5.696;2023-11-19T13:40:13;27.38;;;3.10;;
46731;SDS011;32477;51.474;5.696;2023-11-19T13:42:40;23.77;;;4.38;;
46731;SDS011;32477;51.474;5.696;2023-11-19T13:45:16;18.40;;;3.78;;
46731;SDS011;32477;51.474;5.696;2023-11-19T13:47:43;23.23;;;3.60;;
46731;SDS011;32477;51.474;5.696;2023-11-19T13:50:14;17.58;;;2.72;;
46731;SDS011;32477;51.474;5.696;2023-11-19T13:52:42;17.95;;;3.33;;
46731;SDS011;32477;51.474;5.696;2023-11-19T13:55:11;22.30;;;3.45;;
46731;SDS011;32477;51.474;5.696;2023-11-19T13:57:37;16.50;;;3.75;;
46731;SDS011;32477;51.474;5.696;2023-11-19T14:00:04;22.35;;;2.95;;
46731;SDS011;32477;51.474;5.696;2023-11-19T14:02:32;21.30;;;3.60;;
46731;SDS011;32477;51.474;5.696;2023-11-19T14:04:58;20.67;;;3.60;;
46731;SDS011;32477;51.474;5.696;2023-11-19T14:07:24;19.25;;;3.45;;
46731;SDS011;32477;51.474;5.696;2023-11-19T14:09:50;23.98;;;3.83;;
46731;SDS011;32477;51.474;5.696;2023-11-19T14:12:16;27.23;;;3.47;;
46731;SDS011;32477;51.474;5.696;2023-11-19T14:14:42;13.05;;;2.78;;
46731;SDS011;32477;51.474;5.696;2023-11-19T14:17:08;16.95;;;3.03;;
46731;SDS011;32477;51.474;5.696;2023-11-19T14:19:36;32.58;;;4.30;;
46731;SDS011;32477;51.474;5.696;2023-11-19T14:22:02;27.75;;;4.57;;
46731;SDS011;32477;51.474;5.696;2023-11-19T14:24:27;24.30;;;4.07;;
46731;SDS011;32477;51.474;5.696;2023-11-19T14:26:53;21.85;;;3.60;;
46731;SDS011;32477;51.474;5.696;2023-11-19T14:29:19;29.63;;;3.97;;
46731;SDS011;32477;51.474;5.696;2023-11-19T14:31:45;18.45;;;3.40;;
46731;SDS011;32477;51.474;5.696;2023-11-19T14:34:11;24.67;;;4.88;;
46731;SDS011;32477;51.474;5.696;2023-11-19T14:36:36;22.58;;;3.10;;
46731;SDS011;32477;51.474;5.696;2023-11-19T14:39:02;23.45;;;3.47;;
46731;SDS011;32477;51.474;5.696;2023-11-19T14:41:28;20.52;;;4.35;;
46731;SDS011;32477;51.474;5.696;2023-11-19T14:43:54;23.17;;;4.20;;
46731;SDS011;32477;51.474;5.696;2023-11-19T14:46:20;19.58;;;3.97;;
46731;SDS011;32477;51.474;5.696;2023-11-19T14:48:46;21.45;;;3.67;;
46731;SDS011;32477;51.474;5.696;2023-11-19T14:51:11;32.47;;;4.45;;
46731;SDS011;32477;51.474;5.696;2023-11-19T14:53:37;29.65;;;3.70;;
46731;SDS011;32477;51.474;5.696;2023-11-19T14:56:03;24.15;;;3.40;;
46731;SDS011;32477;51.474;5.696;2023-11-19T14:58:32;29.27;;;3.70;;